sensor_id;sensor_type;location;lat;lon;timestamp;temperature;humidity
57030;DHT22;42920;45.306;20.448;2023-05-10T00:00:10;282.50;2278.40
57030;DHT22;42920;45.306;20.448;2023-05-10T00:02:36;282.50;2278.40
57030;DHT22;42920;45.306;20.448;2023-05-10T00:05:02;282.50;2278.40
57030;DHT22;42920;45.306;20.448;2023-05-10T00:07:27;282.50;2278.40
57030;DHT22;42920;45.306;20.448;2023-05-10T00:09:53;282.40;2278.40
57030;DHT22;42920;45.306;20.448;2023-05-10T00:12:18;282.40;2278.40
57030;DHT22;42920;45.306;20.448;2023-05-10T00:14:44;282.50;2278.40
57030;DHT22;42920;45.306;20.448;2023-05-10T00:17:10;282.50;2278.40
57030;DHT22;42920;45.306;20.448;2023-05-10T00:19:35;282.50;2278.40
57030;DHT22;42920;45.306;20.448;2023-05-10T00:22:01;282.50;2278.40
57030;DHT22;42920;45.306;20.448;2023-05-10T00:24:27;282.50;2278.40
57030;DHT22;42920;45.306;20.448;2023-05-10T00:26:52;282.50;2278.40
57030;DHT22;42920;45.306;20.448;2023-05-10T00:29:18;282.50;2278.40
57030;DHT22;42920;45.306;20.448;2023-05-10T00:31:44;282.40;2278.40
57030;DHT22;42920;45.306;20.448;2023-05-10T00:34:10;282.30;2278.40
57030;DHT22;42920;45.306;20.448;2023-05-10T00:36:36;282.30;2278.40
57030;DHT22;42920;45.306;20.448;2023-05-10T00:39:02;282.30;2278.40
57030;DHT22;42920;45.306;20.448;2023-05-10T00:41:29;282.20;2278.40
57030;DHT22;42920;45.306;20.448;2023-05-10T00:43:54;282.20;2278.40
57030;DHT22;42920;45.306;20.448;2023-05-10T00:46:20;282.10;2278.40
57030;DHT22;42920;45.306;20.448;2023-05-10T00:48:46;282.10;2278.40
57030;DHT22;42920;45.306;20.448;2023-05-10T00:51:13;282.20;2278.40
57030;DHT22;42920;45.306;20.448;2023-05-10T00:53:38;282.10;2278.40
57030;DHT22;42920;45.306;20.448;2023-05-10T00:56:04;282.10;2278.40
57030;DHT22;42920;45.306;20.448;2023-05-10T00:58:30;282.10;2278.40
57030;DHT22;42920;45.306;20.448;2023-05-10T01:00:56;282.30;2278.40
57030;DHT22;42920;45.306;20.448;2023-05-10T01:03:22;282.30;2278.40
57030;DHT22;42920;45.306;20.448;2023-05-10T01:05:47;282.30;2278.40
57030;DHT22;42920;45.306;20.448;2023-05-10T01:08:13;282.40;2278.40
57030;DHT22;42920;45.306;20.448;2023-05-10T01:10:39;282.30;2278.40
57030;DHT22;42920;45.306;20.448;2023-05-10T01:13:04;282.40;2278.40
57030;DHT22;42920;45.306;20.448;2023-05-10T01:15:30;282.40;2278.40
57030;DHT22;42920;45.306;20.448;2023-05-10T01:17:56;282.40;2278.40
57030;DHT22;42920;45.306;20.448;2023-05-10T01:20:21;282.40;2278.40
57030;DHT22;42920;45.306;20.448;2023-05-10T01:33:18;307.20;2304.00
57030;DHT22;42920;45.306;20.448;2023-05-10T01:35:51;282.50;2278.40
57030;DHT22;42920;45.306;20.448;2023-05-10T01:38:21;282.50;2278.40
57030;DHT22;42920;45.306;20.448;2023-05-10T01:43:30;282.50;2278.40
57030;DHT22;42920;45.306;20.448;2023-05-10T01:46:17;282.40;2278.40
57030;DHT22;42920;45.306;20.448;2023-05-10T01:48:48;282.40;2278.40
57030;DHT22;42920;45.306;20.448;2023-05-10T01:51:17;282.20;2278.40
57030;DHT22;42920;45.306;20.448;2023-05-10T01:53:44;282.20;2278.40
57030;DHT22;42920;45.306;20.448;2023-05-10T01:56:11;282.10;2278.40
57030;DHT22;42920;45.306;20.448;2023-05-10T01:58:38;282.20;2278.40
57030;DHT22;42920;45.306;20.448;2023-05-10T02:01:05;282.20;2278.40
57030;DHT22;42920;45.306;20.448;2023-05-10T02:03:31;282.00;2278.40
57030;DHT22;42920;45.306;20.448;2023-05-10T02:05:57;282.00;2278.40
57030;DHT22;42920;45.306;20.448;2023-05-10T02:08:24;282.00;2278.40
57030;DHT22;42920;45.306;20.448;2023-05-10T02:10:51;282.00;2278.40
57030;DHT22;42920;45.306;20.448;2023-05-10T02:13:17;282.00;2278.40
57030;DHT22;42920;45.306;20.448;2023-05-10T02:15:43;281.80;2278.40
57030;DHT22;42920;45.306;20.448;2023-05-10T02:18:12;281.80;2278.40
57030;DHT22;42920;45.306;20.448;2023-05-10T02:20:38;281.80;2278.40
57030;DHT22;42920;45.306;20.448;2023-05-10T02:23:05;281.80;2278.40
57030;DHT22;42920;45.306;20.448;2023-05-10T02:25:31;281.90;2278.40
57030;DHT22;42920;45.306;20.448;2023-05-10T02:27:58;281.80;2278.40
57030;DHT22;42920;45.306;20.448;2023-05-10T02:30:25;281.80;2278.40
57030;DHT22;42920;45.306;20.448;2023-05-10T02:32:51;281.80;2278.40
57030;DHT22;42920;45.306;20.448;2023-05-10T02:35:17;281.80;2278.40
57030;DHT22;42920;45.306;20.448;2023-05-10T02:37:44;281.80;2278.40
57030;DHT22;42920;45.306;20.448;2023-05-10T02:40:10;281.80;2278.40
57030;DHT22;42920;45.306;20.448;2023-05-10T02:42:37;281.80;2278.40
57030;DHT22;42920;45.306;20.448;2023-05-10T02:45:05;281.80;2278.40
57030;DHT22;42920;45.306;20.448;2023-05-10T02:47:32;281.80;2278.40
57030;DHT22;42920;45.306;20.448;2023-05-10T02:49:58;281.80;2278.40
57030;DHT22;42920;45.306;20.448;2023-05-10T02:52:28;281.90;2278.40
57030;DHT22;42920;45.306;20.448;2023-05-10T02:54:56;281.90;2278.40
57030;DHT22;42920;45.306;20.448;2023-05-10T02:57:27;281.90;2278.40
57030;DHT22;42920;45.306;20.448;2023-05-10T02:59:54;282.00;2278.40
57030;DHT22;42920;45.306;20.448;2023-05-10T03:02:20;281.80;2278.40
57030;DHT22;42920;45.306;20.448;2023-05-10T03:04:45;281.70;2278.40
57030;DHT22;42920;45.306;20.448;2023-05-10T03:07:11;281.80;2278.40
57030;DHT22;42920;45.306;20.448;2023-05-10T03:09:36;281.70;2278.40
57030;DHT22;42920;45.306;20.448;2023-05-10T03:17:00;281.70;2278.40
57030;DHT22;42920;45.306;20.448;2023-05-10T03:19:35;281.60;2278.40
57030;DHT22;42920;45.306;20.448;2023-05-10T03:22:03;281.60;2278.40
57030;DHT22;42920;45.306;20.448;2023-05-10T03:24:31;256.90;2252.80
57030;DHT22;42920;45.306;20.448;2023-05-10T03:26:58;281.60;2278.40
57030;DHT22;42920;45.306;20.448;2023-05-10T03:29:27;281.60;2278.40
57030;DHT22;42920;45.306;20.448;2023-05-10T03:31:54;256.90;2252.80
57030;DHT22;42920;45.306;20.448;2023-05-10T03:34:23;256.90;2252.80
57030;DHT22;42920;45.306;20.448;2023-05-10T03:36:49;281.70;2278.40
57030;DHT22;42920;45.306;20.448;2023-05-10T03:39:15;281.70;2278.40
57030;DHT22;42920;45.306;20.448;2023-05-10T03:41:40;281.80;2278.40
57030;DHT22;42920;45.306;20.448;2023-05-10T03:44:06;281.70;2278.40
57030;DHT22;42920;45.306;20.448;2023-05-10T03:46:32;281.80;2278.40
57030;DHT22;42920;45.306;20.448;2023-05-10T03:48:57;281.80;2278.40
57030;DHT22;42920;45.306;20.448;2023-05-10T03:51:23;281.80;2278.40
57030;DHT22;42920;45.306;20.448;2023-05-10T03:53:53;281.80;2278.40
57030;DHT22;42920;45.306;20.448;2023-05-10T03:56:19;281.80;2278.40
57030;DHT22;42920;45.306;20.448;2023-05-10T03:58:46;281.90;2278.40
57030;DHT22;42920;45.306;20.448;2023-05-10T04:01:11;281.90;2278.40
57030;DHT22;42920;45.306;20.448;2023-05-10T04:03:37;281.80;2278.40
57030;DHT22;42920;45.306;20.448;2023-05-10T04:06:03;281.70;2278.40
57030;DHT22;42920;45.306;20.448;2023-05-10T04:08:29;256.90;2252.80
57030;DHT22;42920;45.306;20.448;2023-05-10T04:11:04;281.70;2278.40
57030;DHT22;42920;45.306;20.448;2023-05-10T04:13:29;281.80;2278.40
57030;DHT22;42920;45.306;20.448;2023-05-10T04:15:55;281.70;2278.40
57030;DHT22;42920;45.306;20.448;2023-05-10T04:18:20;281.80;2278.40
57030;DHT22;42920;45.306;20.448;2023-05-10T04:20:46;281.80;2278.40
57030;DHT22;42920;45.306;20.448;2023-05-10T04:23:11;281.90;2278.40
57030;DHT22;42920;45.306;20.448;2023-05-10T04:25:39;281.90;2278.40
57030;DHT22;42920;45.306;20.448;2023-05-10T04:28:04;282.00;2278.40
57030;DHT22;42920;45.306;20.448;2023-05-10T04:30:30;282.00;2278.40
57030;DHT22;42920;45.306;20.448;2023-05-10T04:32:55;282.00;2278.40
57030;DHT22;42920;45.306;20.448;2023-05-10T04:35:21;282.10;2278.40
57030;DHT22;42920;45.306;20.448;2023-05-10T04:37:47;282.00;2278.40
57030;DHT22;42920;45.306;20.448;2023-05-10T04:40:12;282.20;2278.40
57030;DHT22;42920;45.306;20.448;2023-05-10T04:42:39;282.20;2278.40
57030;DHT22;42920;45.306;20.448;2023-05-10T04:45:05;282.20;2278.40
57030;DHT22;42920;45.306;20.448;2023-05-10T04:47:31;282.30;2278.40
57030;DHT22;42920;45.306;20.448;2023-05-10T04:49:56;282.20;2278.40
57030;DHT22;42920;45.306;20.448;2023-05-10T04:52:22;282.20;2278.40
57030;DHT22;42920;45.306;20.448;2023-05-10T04:54:48;282.20;2278.40
57030;DHT22;42920;45.306;20.448;2023-05-10T04:57:13;282.20;2278.40
57030;DHT22;42920;45.306;20.448;2023-05-10T04:59:39;282.20;2278.40
57030;DHT22;42920;45.306;20.448;2023-05-10T05:02:05;282.30;2278.40
57030;DHT22;42920;45.306;20.448;2023-05-10T05:04:30;282.40;2278.40
57030;DHT22;42920;45.306;20.448;2023-05-10T05:06:56;282.40;2278.40
57030;DHT22;42920;45.306;20.448;2023-05-10T05:09:22;282.50;2278.40
57030;DHT22;42920;45.306;20.448;2023-05-10T05:11:47;282.50;2278.40
57030;DHT22;42920;45.306;20.448;2023-05-10T05:14:13;282.50;2278.40
57030;DHT22;42920;45.306;20.448;2023-05-10T05:16:39;307.20;2304.00
57030;DHT22;42920;45.306;20.448;2023-05-10T05:19:05;307.30;2304.00
57030;DHT22;42920;45.306;20.448;2023-05-10T05:21:30;307.60;2304.00
57030;DHT22;42920;45.306;20.448;2023-05-10T05:23:57;307.70;2304.00
57030;DHT22;42920;45.306;20.448;2023-05-10T05:26:22;307.90;2304.00
57030;DHT22;42920;45.306;20.448;2023-05-10T05:28:48;308.10;2304.00
57030;DHT22;42920;45.306;20.448;2023-05-10T05:31:16;332.80;2329.60
57030;DHT22;42920;45.306;20.448;2023-05-10T05:33:43;332.90;2329.60
57030;DHT22;42920;45.306;20.448;2023-05-10T05:36:08;333.00;2329.60
57030;DHT22;42920;45.306;20.448;2023-05-10T05:38:34;333.10;2329.60
57030;DHT22;42920;45.306;20.448;2023-05-10T05:41:00;333.30;2329.60
57030;DHT22;42920;45.306;20.448;2023-05-10T05:43:25;333.40;2329.60
57030;DHT22;42920;45.306;20.448;2023-05-10T05:45:53;333.50;2329.60
57030;DHT22;42920;45.306;20.448;2023-05-10T05:48:19;333.70;2329.60
57030;DHT22;42920;45.306;20.448;2023-05-10T05:50:45;358.40;2329.60
57030;DHT22;42920;45.306;20.448;2023-05-10T05:53:11;333.70;2329.60
57030;DHT22;42920;45.306;20.448;2023-05-10T05:55:36;358.40;2329.60
57030;DHT22;42920;45.306;20.448;2023-05-10T05:58:02;358.50;2329.60
57030;DHT22;42920;45.306;20.448;2023-05-10T06:00:28;358.70;2329.60
57030;DHT22;42920;45.306;20.448;2023-05-10T06:02:53;358.70;2329.60
57030;DHT22;42920;45.306;20.448;2023-05-10T06:05:19;358.70;2329.60
57030;DHT22;42920;45.306;20.448;2023-05-10T06:07:45;358.70;2329.60
57030;DHT22;42920;45.306;20.448;2023-05-10T06:10:11;358.70;2329.60
57030;DHT22;42920;45.306;20.448;2023-05-10T06:12:37;358.70;2329.60
57030;DHT22;42920;45.306;20.448;2023-05-10T06:15:03;358.80;2329.60
57030;DHT22;42920;45.306;20.448;2023-05-10T06:17:28;359.00;2329.60
57030;DHT22;42920;45.306;20.448;2023-05-10T06:19:54;359.30;2329.60
57030;DHT22;42920;45.306;20.448;2023-05-10T06:22:19;384.00;2329.60
57030;DHT22;42920;45.306;20.448;2023-05-10T06:24:47;359.30;2329.60
57030;DHT22;42920;45.306;20.448;2023-05-10T06:27:12;359.20;2329.60
57030;DHT22;42920;45.306;20.448;2023-05-10T06:29:38;359.20;2329.60
57030;DHT22;42920;45.306;20.448;2023-05-10T06:32:04;359.20;2329.60
57030;DHT22;42920;45.306;20.448;2023-05-10T06:34:29;384.00;2329.60
57030;DHT22;42920;45.306;20.448;2023-05-10T06:36:55;384.00;2329.60
57030;DHT22;42920;45.306;20.448;2023-05-10T06:39:21;384.00;2329.60
57030;DHT22;42920;45.306;20.448;2023-05-10T06:41:46;384.00;2329.60
57030;DHT22;42920;45.306;20.448;2023-05-10T06:44:12;384.50;2329.60
57030;DHT22;42920;45.306;20.448;2023-05-10T06:46:38;384.80;2329.60
57030;DHT22;42920;45.306;20.448;2023-05-10T06:49:03;384.90;2329.60
57030;DHT22;42920;45.306;20.448;2023-05-10T06:51:29;384.70;2329.60
57030;DHT22;42920;45.306;20.448;2023-05-10T06:53:55;384.60;2329.60
57030;DHT22;42920;45.306;20.448;2023-05-10T06:56:21;384.70;2329.60
57030;DHT22;42920;45.306;20.448;2023-05-10T06:58:47;384.90;2329.60
57030;DHT22;42920;45.306;20.448;2023-05-10T07:01:13;409.90;2355.20
57030;DHT22;42920;45.306;20.448;2023-05-10T07:03:38;410.00;2355.20
57030;DHT22;42920;45.306;20.448;2023-05-10T07:06:04;410.20;2355.20
57030;DHT22;42920;45.306;20.448;2023-05-10T07:08:30;410.20;2355.20
57030;DHT22;42920;45.306;20.448;2023-05-10T07:11:00;435.20;2355.20
57030;DHT22;42920;45.306;20.448;2023-05-10T07:13:25;435.30;2355.20
57030;DHT22;42920;45.306;20.448;2023-05-10T07:15:51;410.40;2355.20
57030;DHT22;42920;45.306;20.448;2023-05-10T07:18:16;410.50;2355.20
57030;DHT22;42920;45.306;20.448;2023-05-10T07:20:42;435.20;2355.20
57030;DHT22;42920;45.306;20.448;2023-05-10T07:23:07;410.30;2355.20
57030;DHT22;42920;45.306;20.448;2023-05-10T07:25:33;410.20;2355.20
57030;DHT22;42920;45.306;20.448;2023-05-10T07:27:59;410.20;2355.20
57030;DHT22;42920;45.306;20.448;2023-05-10T07:30:24;410.20;2355.20
57030;DHT22;42920;45.306;20.448;2023-05-10T07:32:50;410.00;2355.20
57030;DHT22;42920;45.306;20.448;2023-05-10T07:35:15;409.80;2355.20
57030;DHT22;42920;45.306;20.448;2023-05-10T07:37:41;409.80;2355.20
57030;DHT22;42920;45.306;20.448;2023-05-10T07:40:06;410.00;2355.20
57030;DHT22;42920;45.306;20.448;2023-05-10T07:42:32;410.20;2355.20
57030;DHT22;42920;45.306;20.448;2023-05-10T07:44:58;410.30;2355.20
57030;DHT22;42920;45.306;20.448;2023-05-10T07:47:23;410.30;2355.20
57030;DHT22;42920;45.306;20.448;2023-05-10T07:49:49;410.50;2355.20
57030;DHT22;42920;45.306;20.448;2023-05-10T07:52:14;410.40;2355.20
57030;DHT22;42920;45.306;20.448;2023-05-10T07:54:40;410.40;2355.20
57030;DHT22;42920;45.306;20.448;2023-05-10T07:57:07;410.40;2355.20
57030;DHT22;42920;45.306;20.448;2023-05-10T07:59:32;435.20;2355.20
57030;DHT22;42920;45.306;20.448;2023-05-10T08:01:58;435.30;2355.20
57030;DHT22;42920;45.306;20.448;2023-05-10T08:04:24;435.20;2355.20
57030;DHT22;42920;45.306;20.448;2023-05-10T08:06:49;410.50;2355.20
57030;DHT22;42920;45.306;20.448;2023-05-10T08:09:15;435.40;2355.20
57030;DHT22;42920;45.306;20.448;2023-05-10T08:11:41;435.50;2355.20
57030;DHT22;42920;45.306;20.448;2023-05-10T08:14:06;435.60;2278.40
57030;DHT22;42920;45.306;20.448;2023-05-10T08:16:32;435.90;2355.20
57030;DHT22;42920;45.306;20.448;2023-05-10T08:18:57;460.80;2304.00
57030;DHT22;42920;45.306;20.448;2023-05-10T08:21:23;460.90;2227.20
57030;DHT22;42920;45.306;20.448;2023-05-10T08:23:48;461.00;2252.80
57030;DHT22;42920;45.306;20.448;2023-05-10T08:26:14;461.20;2124.80
57030;DHT22;42920;45.306;20.448;2023-05-10T08:28:40;461.20;2073.60
57030;DHT22;42920;45.306;20.448;2023-05-10T08:31:06;461.30;2073.60
57030;DHT22;42920;45.306;20.448;2023-05-10T08:33:31;461.40;2022.40
57030;DHT22;42920;45.306;20.448;2023-05-10T08:35:57;461.60;1945.60
57030;DHT22;42920;45.306;20.448;2023-05-10T08:38:22;461.70;1868.80
57030;DHT22;42920;45.306;20.448;2023-05-10T08:40:48;486.40;1868.80
57030;DHT22;42920;45.306;20.448;2023-05-10T08:43:15;486.60;1843.20
57030;DHT22;42920;45.306;20.448;2023-05-10T08:45:42;486.40;1792.00
57030;DHT22;42920;45.306;20.448;2023-05-10T08:48:08;461.70;1792.00
57030;DHT22;42920;45.306;20.448;2023-05-10T08:50:38;461.60;1817.60
57030;DHT22;42920;45.306;20.448;2023-05-10T08:53:04;461.40;1817.60
57030;DHT22;42920;45.306;20.448;2023-05-10T08:55:32;461.20;1817.60
57030;DHT22;42920;45.306;20.448;2023-05-10T08:57:59;461.30;1843.20
57030;DHT22;42920;45.306;20.448;2023-05-10T09:00:26;461.70;1792.00
57030;DHT22;42920;45.306;20.448;2023-05-10T09:02:52;461.50;1792.00
57030;DHT22;42920;45.306;20.448;2023-05-10T09:05:18;461.50;1766.40
57030;DHT22;42920;45.306;20.448;2023-05-10T09:07:43;461.20;1766.40
57030;DHT22;42920;45.306;20.448;2023-05-10T09:10:09;461.10;1766.40
57030;DHT22;42920;45.306;20.448;2023-05-10T09:12:35;461.20;1766.40
57030;DHT22;42920;45.306;20.448;2023-05-10T09:15:01;461.10;1766.40
57030;DHT22;42920;45.306;20.448;2023-05-10T09:17:27;461.20;1766.40
57030;DHT22;42920;45.306;20.448;2023-05-10T09:19:59;461.30;1766.40
57030;DHT22;42920;45.306;20.448;2023-05-10T09:22:25;461.40;1766.40
57030;DHT22;42920;45.306;20.448;2023-05-10T09:25:04;486.40;1740.80
57030;DHT22;42920;45.306;20.448;2023-05-10T09:27:30;486.70;1715.20
57030;DHT22;42920;45.306;20.448;2023-05-10T09:29:55;486.80;1715.20
57030;DHT22;42920;45.306;20.448;2023-05-10T09:32:21;486.70;1715.20
57030;DHT22;42920;45.306;20.448;2023-05-10T09:34:46;486.90;1689.60
57030;DHT22;42920;45.306;20.448;2023-05-10T09:37:14;487.00;1664.00
57030;DHT22;42920;45.306;20.448;2023-05-10T09:39:40;486.70;1689.60
57030;DHT22;42920;45.306;20.448;2023-05-10T09:42:07;486.90;1715.20
57030;DHT22;42920;45.306;20.448;2023-05-10T09:44:33;486.80;1689.60
57030;DHT22;42920;45.306;20.448;2023-05-10T09:46:59;486.80;1664.00
57030;DHT22;42920;45.306;20.448;2023-05-10T09:49:24;487.00;1664.00
57030;DHT22;42920;45.306;20.448;2023-05-10T09:52:00;487.10;1664.00
57030;DHT22;42920;45.306;20.448;2023-05-10T09:54:25;487.20;1612.80
57030;DHT22;42920;45.306;20.448;2023-05-10T09:56:51;487.30;1587.20
57030;DHT22;42920;45.306;20.448;2023-05-10T09:59:16;512.20;1638.40
57030;DHT22;42920;45.306;20.448;2023-05-10T10:01:44;512.40;1587.20
57030;DHT22;42920;45.306;20.448;2023-05-10T10:04:14;512.60;1561.60
57030;DHT22;42920;45.306;20.448;2023-05-10T10:06:40;512.70;1561.60
57030;DHT22;42920;45.306;20.448;2023-05-10T10:09:06;512.90;1536.00
57030;DHT22;42920;45.306;20.448;2023-05-10T10:11:33;512.40;1510.40
57030;DHT22;42920;45.306;20.448;2023-05-10T10:13:59;512.70;1510.40
57030;DHT22;42920;45.306;20.448;2023-05-10T10:16:24;512.90;1484.80
57030;DHT22;42920;45.306;20.448;2023-05-10T10:18:50;512.50;1484.80
57030;DHT22;42920;45.306;20.448;2023-05-10T10:21:16;512.30;1484.80
57030;DHT22;42920;45.306;20.448;2023-05-10T10:23:41;537.60;1510.40
57030;DHT22;42920;45.306;20.448;2023-05-10T10:26:08;537.60;1484.80
57030;DHT22;42920;45.306;20.448;2023-05-10T10:31:15;537.80;1510.40
57030;DHT22;42920;45.306;20.448;2023-05-10T10:36:08;538.40;1459.20
57030;DHT22;42920;45.306;20.448;2023-05-10T10:41:28;538.40;1459.20
57030;DHT22;42920;45.306;20.448;2023-05-10T10:49:22;538.10;1433.60
57030;DHT22;42920;45.306;20.448;2023-05-10T10:54:32;538.10;1484.80
57030;DHT22;42920;45.306;20.448;2023-05-10T10:57:13;537.90;1484.80
57030;DHT22;42920;45.306;20.448;2023-05-10T10:59:42;537.60;1510.40
57030;DHT22;42920;45.306;20.448;2023-05-10T11:02:09;537.70;1510.40
57030;DHT22;42920;45.306;20.448;2023-05-10T11:04:41;537.80;1484.80
57030;DHT22;42920;45.306;20.448;2023-05-10T11:07:17;538.10;1484.80
57030;DHT22;42920;45.306;20.448;2023-05-10T11:09:43;538.40;1484.80
57030;DHT22;42920;45.306;20.448;2023-05-10T11:12:08;538.40;1459.20
57030;DHT22;42920;45.306;20.448;2023-05-10T11:14:34;537.90;1484.80
57030;DHT22;42920;45.306;20.448;2023-05-10T11:17:00;537.80;1510.40
57030;DHT22;42920;45.306;20.448;2023-05-10T11:19:29;537.90;1536.00
57030;DHT22;42920;45.306;20.448;2023-05-10T11:24:29;537.60;1510.40
57030;DHT22;42920;45.306;20.448;2023-05-10T11:26:55;537.80;1536.00
57030;DHT22;42920;45.306;20.448;2023-05-10T11:29:21;537.80;1561.60
57030;DHT22;42920;45.306;20.448;2023-05-10T11:31:48;537.60;1561.60
57030;DHT22;42920;45.306;20.448;2023-05-10T11:34:27;512.70;1561.60
57030;DHT22;42920;45.306;20.448;2023-05-10T11:36:53;538.00;1587.20
57030;DHT22;42920;45.306;20.448;2023-05-10T11:39:19;538.10;1561.60
57030;DHT22;42920;45.306;20.448;2023-05-10T11:41:46;537.80;1561.60
57030;DHT22;42920;45.306;20.448;2023-05-10T11:44:12;537.80;1561.60
57030;DHT22;42920;45.306;20.448;2023-05-10T11:46:38;537.80;1587.20
57030;DHT22;42920;45.306;20.448;2023-05-10T11:49:03;538.40;1587.20
57030;DHT22;42920;45.306;20.448;2023-05-10T11:51:35;537.80;1536.00
57030;DHT22;42920;45.306;20.448;2023-05-10T11:54:08;537.90;1587.20
57030;DHT22;42920;45.306;20.448;2023-05-10T11:56:34;512.90;1561.60
57030;DHT22;42920;45.306;20.448;2023-05-10T11:59:00;512.90;1587.20
57030;DHT22;42920;45.306;20.448;2023-05-10T12:01:27;537.80;1587.20
57030;DHT22;42920;45.306;20.448;2023-05-10T12:03:54;538.10;1536.00
57030;DHT22;42920;45.306;20.448;2023-05-10T12:06:20;538.10;1561.60
57030;DHT22;42920;45.306;20.448;2023-05-10T12:08:46;563.20;1587.20
57030;DHT22;42920;45.306;20.448;2023-05-10T12:11:12;538.30;1587.20
57030;DHT22;42920;45.306;20.448;2023-05-10T12:13:41;538.30;1561.60
57030;DHT22;42920;45.306;20.448;2023-05-10T12:16:20;537.90;1561.60
57030;DHT22;42920;45.306;20.448;2023-05-10T12:18:49;512.90;1561.60
57030;DHT22;42920;45.306;20.448;2023-05-10T12:21:16;538.10;1587.20
57030;DHT22;42920;45.306;20.448;2023-05-10T12:23:42;538.40;1561.60
57030;DHT22;42920;45.306;20.448;2023-05-10T12:26:10;538.40;1587.20
57030;DHT22;42920;45.306;20.448;2023-05-10T12:28:36;538.50;1587.20
57030;DHT22;42920;45.306;20.448;2023-05-10T12:31:02;538.10;1561.60
57030;DHT22;42920;45.306;20.448;2023-05-10T12:33:35;537.90;1587.20
57030;DHT22;42920;45.306;20.448;2023-05-10T12:36:00;537.60;1612.80
57030;DHT22;42920;45.306;20.448;2023-05-10T12:40:59;538.20;1587.20
57030;DHT22;42920;45.306;20.448;2023-05-10T12:43:25;538.30;1587.20
57030;DHT22;42920;45.306;20.448;2023-05-10T12:45:51;537.90;1587.20
57030;DHT22;42920;45.306;20.448;2023-05-10T12:48:16;538.30;1587.20
57030;DHT22;42920;45.306;20.448;2023-05-10T12:50:42;538.20;1561.60
57030;DHT22;42920;45.306;20.448;2023-05-10T12:53:08;537.90;1587.20
57030;DHT22;42920;45.306;20.448;2023-05-10T12:55:33;537.60;1561.60
57030;DHT22;42920;45.306;20.448;2023-05-10T12:57:59;538.10;1561.60
57030;DHT22;42920;45.306;20.448;2023-05-10T13:00:25;538.50;1587.20
57030;DHT22;42920;45.306;20.448;2023-05-10T13:02:50;563.40;1561.60
57030;DHT22;42920;45.306;20.448;2023-05-10T13:05:16;563.30;1536.00
57030;DHT22;42920;45.306;20.448;2023-05-10T13:07:41;563.20;1510.40
57030;DHT22;42920;45.306;20.448;2023-05-10T13:10:09;563.20;1536.00
57030;DHT22;42920;45.306;20.448;2023-05-10T13:12:34;563.30;1510.40
57030;DHT22;42920;45.306;20.448;2023-05-10T13:15:00;563.30;1536.00
57030;DHT22;42920;45.306;20.448;2023-05-10T13:17:26;538.20;1510.40
57030;DHT22;42920;45.306;20.448;2023-05-10T13:19:51;538.40;1510.40
57030;DHT22;42920;45.306;20.448;2023-05-10T13:22:17;538.50;1510.40
57030;DHT22;42920;45.306;20.448;2023-05-10T13:24:42;538.40;1510.40
57030;DHT22;42920;45.306;20.448;2023-05-10T13:27:08;537.80;1484.80
57030;DHT22;42920;45.306;20.448;2023-05-10T13:29:34;538.10;1536.00
57030;DHT22;42920;45.306;20.448;2023-05-10T13:31:59;538.50;1510.40
57030;DHT22;42920;45.306;20.448;2023-05-10T13:34:25;538.30;1510.40
57030;DHT22;42920;45.306;20.448;2023-05-10T13:36:51;537.80;1510.40
57030;DHT22;42920;45.306;20.448;2023-05-10T13:39:16;537.70;1536.00
57030;DHT22;42920;45.306;20.448;2023-05-10T13:41:42;512.90;1510.40
57030;DHT22;42920;45.306;20.448;2023-05-10T13:44:07;512.90;1536.00
57030;DHT22;42920;45.306;20.448;2023-05-10T13:46:33;512.80;1510.40
57030;DHT22;42920;45.306;20.448;2023-05-10T13:48:59;512.40;1536.00
57030;DHT22;42920;45.306;20.448;2023-05-10T13:51:24;512.90;1561.60
57030;DHT22;42920;45.306;20.448;2023-05-10T13:53:50;537.60;1561.60
57030;DHT22;42920;45.306;20.448;2023-05-10T13:56:15;538.00;1536.00
57030;DHT22;42920;45.306;20.448;2023-05-10T13:58:41;538.10;1536.00
57030;DHT22;42920;45.306;20.448;2023-05-10T14:01:06;538.40;1536.00
57030;DHT22;42920;45.306;20.448;2023-05-10T14:03:32;538.50;1510.40
57030;DHT22;42920;45.306;20.448;2023-05-10T14:05:58;538.50;1484.80
57030;DHT22;42920;45.306;20.448;2023-05-10T14:08:24;538.50;1459.20
57030;DHT22;42920;45.306;20.448;2023-05-10T14:10:49;538.50;1459.20
57030;DHT22;42920;45.306;20.448;2023-05-10T14:13:15;538.00;1484.80
57030;DHT22;42920;45.306;20.448;2023-05-10T14:15:41;538.20;1484.80
57030;DHT22;42920;45.306;20.448;2023-05-10T14:18:07;537.90;1484.80
57030;DHT22;42920;45.306;20.448;2023-05-10T14:20:32;537.80;1510.40
57030;DHT22;42920;45.306;20.448;2023-05-10T14:22:59;512.90;1484.80
57030;DHT22;42920;45.306;20.448;2023-05-10T14:25:25;537.80;1510.40
57030;DHT22;42920;45.306;20.448;2023-05-10T14:27:50;512.90;1510.40
57030;DHT22;42920;45.306;20.448;2023-05-10T14:30:16;512.40;1536.00
57030;DHT22;42920;45.306;20.448;2023-05-10T14:32:42;512.50;1536.00
57030;DHT22;42920;45.306;20.448;2023-05-10T14:35:07;512.80;1536.00
57030;DHT22;42920;45.306;20.448;2023-05-10T14:37:33;512.50;1536.00
57030;DHT22;42920;45.306;20.448;2023-05-10T14:39:59;512.50;1536.00
57030;DHT22;42920;45.306;20.448;2023-05-10T14:42:24;512.50;1561.60
57030;DHT22;42920;45.306;20.448;2023-05-10T14:44:50;512.40;1536.00
57030;DHT22;42920;45.306;20.448;2023-05-10T14:47:15;512.70;1536.00
57030;DHT22;42920;45.306;20.448;2023-05-10T14:49:41;512.80;1536.00
57030;DHT22;42920;45.306;20.448;2023-05-10T14:52:06;512.90;1536.00
57030;DHT22;42920;45.306;20.448;2023-05-10T14:54:32;512.80;1510.40
57030;DHT22;42920;45.306;20.448;2023-05-10T14:57:01;512.60;1536.00
57030;DHT22;42920;45.306;20.448;2023-05-10T14:59:26;512.70;1536.00
57030;DHT22;42920;45.306;20.448;2023-05-10T15:01:52;512.40;1536.00
57030;DHT22;42920;45.306;20.448;2023-05-10T15:04:17;512.20;1561.60
57030;DHT22;42920;45.306;20.448;2023-05-10T15:06:43;512.20;1561.60
57030;DHT22;42920;45.306;20.448;2023-05-10T15:09:09;512.00;1561.60